sensor_id;sensor_type;location;lat;lon;timestamp;temperature;humidity
997;DHT22;487;50.126;8.698;2023-05-18T04:02:04;8.50;1.00
997;DHT22;487;50.126;8.698;2023-05-18T04:04:33;8.30;1.00
997;DHT22;487;50.126;8.698;2023-05-18T04:07:01;8.30;1.00
997;DHT22;487;50.126;8.698;2023-05-18T04:09:32;8.20;1.00
997;DHT22;487;50.126;8.698;2023-05-18T04:12:00;8.20;1.00
997;DHT22;487;50.126;8.698;2023-05-18T04:14:29;8.20;1.00
997;DHT22;487;50.126;8.698;2023-05-18T04:16:58;8.20;1.00
997;DHT22;487;50.126;8.698;2023-05-18T04:19:32;8.20;1.00
997;DHT22;487;50.126;8.698;2023-05-18T04:22:00;8.20;1.00
997;DHT22;487;50.126;8.698;2023-05-18T04:24:30;8.20;1.00
997;DHT22;487;50.126;8.698;2023-05-18T04:26:58;8.20;1.00
997;DHT22;487;50.126;8.698;2023-05-18T04:29:26;8.20;1.00
997;DHT22;487;50.126;8.698;2023-05-18T04:31:54;8.30;1.00
997;DHT22;487;50.126;8.698;2023-05-18T04:34:25;8.30;1.00
997;DHT22;487;50.126;8.698;2023-05-18T04:36:56;8.30;1.00
997;DHT22;487;50.126;8.698;2023-05-18T04:39:24;8.40;1.00
997;DHT22;487;50.126;8.698;2023-05-18T04:41:53;8.40;1.00
997;DHT22;487;50.126;8.698;2023-05-18T04:44:23;8.30;1.00
997;DHT22;487;50.126;8.698;2023-05-18T04:46:53;8.30;1.00
997;DHT22;487;50.126;8.698;2023-05-18T04:49:21;8.30;1.00
997;DHT22;487;50.126;8.698;2023-05-18T04:51:52;8.30;1.00
997;DHT22;487;50.126;8.698;2023-05-18T04:54:24;8.30;1.00
997;DHT22;487;50.126;8.698;2023-05-18T04:56:52;8.30;1.00
997;DHT22;487;50.126;8.698;2023-05-18T04:59:20;8.30;1.00
997;DHT22;487;50.126;8.698;2023-05-18T05:01:52;8.30;1.00
997;DHT22;487;50.126;8.698;2023-05-18T05:04:20;8.30;1.00
997;DHT22;487;50.126;8.698;2023-05-18T05:06:49;8.30;1.00
997;DHT22;487;50.126;8.698;2023-05-18T05:09:17;8.40;1.00
997;DHT22;487;50.126;8.698;2023-05-18T05:11:46;8.40;1.00
997;DHT22;487;50.126;8.698;2023-05-18T05:14:14;8.40;1.00
997;DHT22;487;50.126;8.698;2023-05-18T05:16:42;8.30;1.00
997;DHT22;487;50.126;8.698;2023-05-18T05:19:10;8.40;1.00
997;DHT22;487;50.126;8.698;2023-05-18T05:21:38;8.30;1.00
997;DHT22;487;50.126;8.698;2023-05-18T05:24:07;8.40;1.00
997;DHT22;487;50.126;8.698;2023-05-18T05:26:34;8.40;1.20
997;DHT22;487;50.126;8.698;2023-05-18T05:29:04;8.60;1.00
997;DHT22;487;50.126;8.698;2023-05-18T05:31:32;8.50;1.70
997;DHT22;487;50.126;8.698;2023-05-18T05:34:00;8.70;1.00
997;DHT22;487;50.126;8.698;2023-05-18T05:36:28;8.70;1.00
997;DHT22;487;50.126;8.698;2023-05-18T05:38:57;8.80;1.50
997;DHT22;487;50.126;8.698;2023-05-18T05:41:25;8.90;1.40
997;DHT22;487;50.126;8.698;2023-05-18T05:43:53;8.90;1.00
997;DHT22;487;50.126;8.698;2023-05-18T05:46:23;9.00;1.20
997;DHT22;487;50.126;8.698;2023-05-18T05:48:51;9.00;1.00
997;DHT22;487;50.126;8.698;2023-05-18T05:51:19;9.10;1.30
997;DHT22;487;50.126;8.698;2023-05-18T05:53:47;9.10;1.00
997;DHT22;487;50.126;8.698;2023-05-18T05:56:15;9.10;1.20
997;DHT22;487;50.126;8.698;2023-05-18T05:58:42;9.20;1.00
997;DHT22;487;50.126;8.698;2023-05-18T06:01:11;9.30;1.00
997;DHT22;487;50.126;8.698;2023-05-18T06:03:40;9.40;1.00
997;DHT22;487;50.126;8.698;2023-05-18T06:06:08;9.40;1.00
997;DHT22;487;50.126;8.698;2023-05-18T06:08:36;9.30;1.00
997;DHT22;487;50.126;8.698;2023-05-18T06:11:04;9.30;1.00
997;DHT22;487;50.126;8.698;2023-05-18T06:13:34;9.40;1.00
997;DHT22;487;50.126;8.698;2023-05-18T06:16:02;9.40;1.00
997;DHT22;487;50.126;8.698;2023-05-18T06:18:30;9.50;1.00
997;DHT22;487;50.126;8.698;2023-05-18T06:21:00;9.50;1.00
997;DHT22;487;50.126;8.698;2023-05-18T06:23:28;9.60;1.00
997;DHT22;487;50.126;8.698;2023-05-18T06:25:56;9.60;1.00
997;DHT22;487;50.126;8.698;2023-05-18T06:28:23;9.60;1.00
997;DHT22;487;50.126;8.698;2023-05-18T06:30:51;9.70;1.00
997;DHT22;487;50.126;8.698;2023-05-18T06:33:19;9.90;1.00
997;DHT22;487;50.126;8.698;2023-05-18T06:35:49;9.90;1.00
997;DHT22;487;50.126;8.698;2023-05-18T06:38:18;10.00;1.00
997;DHT22;487;50.126;8.698;2023-05-18T06:40:46;10.00;1.00
997;DHT22;487;50.126;8.698;2023-05-18T06:43:14;10.10;1.00
997;DHT22;487;50.126;8.698;2023-05-18T06:45:42;10.10;1.00
997;DHT22;487;50.126;8.698;2023-05-18T06:48:10;10.20;1.00
997;DHT22;487;50.126;8.698;2023-05-18T06:50:38;10.30;2.90
997;DHT22;487;50.126;8.698;2023-05-18T06:53:05;10.40;1.00
997;DHT22;487;50.126;8.698;2023-05-18T06:55:35;10.40;1.00
997;DHT22;487;50.126;8.698;2023-05-18T06:58:03;10.40;1.00
997;DHT22;487;50.126;8.698;2023-05-18T07:00:31;10.40;1.00
997;DHT22;487;50.126;8.698;2023-05-18T07:02:59;10.50;1.00
997;DHT22;487;50.126;8.698;2023-05-18T07:05:27;10.50;1.00
997;DHT22;487;50.126;8.698;2023-05-18T07:07:56;10.50;1.00
997;DHT22;487;50.126;8.698;2023-05-18T07:10:24;10.70;1.00
997;DHT22;487;50.126;8.698;2023-05-18T07:12:53;10.80;1.00
997;DHT22;487;50.126;8.698;2023-05-18T07:15:22;10.80;1.00
997;DHT22;487;50.126;8.698;2023-05-18T07:17:51;10.90;1.00
997;DHT22;487;50.126;8.698;2023-05-18T07:20:19;11.00;1.00
997;DHT22;487;50.126;8.698;2023-05-18T07:22:49;11.10;1.00
997;DHT22;487;50.126;8.698;2023-05-18T07:25:17;11.10;1.00
997;DHT22;487;50.126;8.698;2023-05-18T07:27:45;11.10;1.00
997;DHT22;487;50.126;8.698;2023-05-18T07:30:14;11.10;1.00
997;DHT22;487;50.126;8.698;2023-05-18T07:32:42;11.10;1.00
997;DHT22;487;50.126;8.698;2023-05-18T07:35:10;11.20;1.00
997;DHT22;487;50.126;8.698;2023-05-18T07:37:39;11.20;1.00
997;DHT22;487;50.126;8.698;2023-05-18T07:40:07;11.40;1.00
997;DHT22;487;50.126;8.698;2023-05-18T07:42:37;11.50;1.00
997;DHT22;487;50.126;8.698;2023-05-18T07:45:05;11.50;1.00
997;DHT22;487;50.126;8.698;2023-05-18T07:47:35;11.70;1.00
997;DHT22;487;50.126;8.698;2023-05-18T07:50:04;11.70;1.00
997;DHT22;487;50.126;8.698;2023-05-18T07:52:32;11.70;1.00
997;DHT22;487;50.126;8.698;2023-05-18T07:55:00;11.70;1.00
997;DHT22;487;50.126;8.698;2023-05-18T07:57:27;11.80;1.00
997;DHT22;487;50.126;8.698;2023-05-18T07:59:56;11.80;1.00
997;DHT22;487;50.126;8.698;2023-05-18T08:04:53;11.90;1.00
997;DHT22;487;50.126;8.698;2023-05-18T08:07:21;11.90;1.00
997;DHT22;487;50.126;8.698;2023-05-18T08:09:52;12.00;1.00
997;DHT22;487;50.126;8.698;2023-05-18T08:12:19;12.00;1.00
997;DHT22;487;50.126;8.698;2023-05-18T08:14:48;12.30;1.00
997;DHT22;487;50.126;8.698;2023-05-18T08:17:16;12.30;1.00
997;DHT22;487;50.126;8.698;2023-05-18T08:19:45;12.50;1.00
997;DHT22;487;50.126;8.698;2023-05-18T08:22:14;12.60;1.00
997;DHT22;487;50.126;8.698;2023-05-18T08:24:42;12.60;1.00
997;DHT22;487;50.126;8.698;2023-05-18T08:27:10;12.70;1.00
997;DHT22;487;50.126;8.698;2023-05-18T08:29:38;12.70;1.00
997;DHT22;487;50.126;8.698;2023-05-18T08:32:06;12.70;1.00
997;DHT22;487;50.126;8.698;2023-05-18T08:34:34;12.80;1.00
997;DHT22;487;50.126;8.698;2023-05-18T08:37:03;12.80;1.00
997;DHT22;487;50.126;8.698;2023-05-18T08:39:33;12.80;1.00
997;DHT22;487;50.126;8.698;2023-05-18T08:42:06;12.80;1.00
997;DHT22;487;50.126;8.698;2023-05-18T08:44:39;12.90;1.00
997;DHT22;487;50.126;8.698;2023-05-18T08:47:13;13.00;1.00
997;DHT22;487;50.126;8.698;2023-05-18T08:49:42;13.00;1.00
997;DHT22;487;50.126;8.698;2023-05-18T08:52:14;13.10;1.00
997;DHT22;487;50.126;8.698;2023-05-18T08:54:46;13.30;1.00
997;DHT22;487;50.126;8.698;2023-05-18T08:57:15;13.30;1.00
997;DHT22;487;50.126;8.698;2023-05-18T08:59:44;13.40;1.00
997;DHT22;487;50.126;8.698;2023-05-18T09:02:13;13.40;1.00
997;DHT22;487;50.126;8.698;2023-05-18T09:04:41;13.60;1.00
997;DHT22;487;50.126;8.698;2023-05-18T09:07:10;13.60;1.00
997;DHT22;487;50.126;8.698;2023-05-18T09:09:39;13.80;1.00
997;DHT22;487;50.126;8.698;2023-05-18T09:12:10;13.80;1.00
997;DHT22;487;50.126;8.698;2023-05-18T09:14:40;14.00;1.00
997;DHT22;487;50.126;8.698;2023-05-18T09:17:10;14.10;1.00
997;DHT22;487;50.126;8.698;2023-05-18T09:19:38;14.10;1.00
997;DHT22;487;50.126;8.698;2023-05-18T09:22:06;14.20;1.00
997;DHT22;487;50.126;8.698;2023-05-18T09:24:34;14.30;1.00
997;DHT22;487;50.126;8.698;2023-05-18T09:27:04;14.40;1.00
997;DHT22;487;50.126;8.698;2023-05-18T09:29:33;14.50;1.00
997;DHT22;487;50.126;8.698;2023-05-18T09:32:02;14.50;1.00
997;DHT22;487;50.126;8.698;2023-05-18T09:34:38;14.50;1.00
997;DHT22;487;50.126;8.698;2023-05-18T09:37:08;14.60;1.00
997;DHT22;487;50.126;8.698;2023-05-18T09:39:36;14.70;1.00
997;DHT22;487;50.126;8.698;2023-05-18T09:42:04;14.80;1.00
997;DHT22;487;50.126;8.698;2023-05-18T09:44:34;14.90;1.00
997;DHT22;487;50.126;8.698;2023-05-18T09:47:06;15.00;1.00
997;DHT22;487;50.126;8.698;2023-05-18T09:49:35;15.00;1.00
997;DHT22;487;50.126;8.698;2023-05-18T09:52:06;14.90;1.00
997;DHT22;487;50.126;8.698;2023-05-18T09:54:35;15.00;1.00
997;DHT22;487;50.126;8.698;2023-05-18T09:57:04;15.20;1.00
997;DHT22;487;50.126;8.698;2023-05-18T09:59:38;15.20;1.00
997;DHT22;487;50.126;8.698;2023-05-18T10:02:06;15.20;1.00
997;DHT22;487;50.126;8.698;2023-05-18T10:04:40;15.40;1.00
997;DHT22;487;50.126;8.698;2023-05-18T10:07:09;15.40;1.00
997;DHT22;487;50.126;8.698;2023-05-18T10:09:39;15.50;1.00
997;DHT22;487;50.126;8.698;2023-05-18T10:12:11;15.40;1.00
997;DHT22;487;50.126;8.698;2023-05-18T10:14:41;15.20;1.00
997;DHT22;487;50.126;8.698;2023-05-18T10:17:10;15.40;1.00
997;DHT22;487;50.126;8.698;2023-05-18T10:19:43;15.50;1.00
997;DHT22;487;50.126;8.698;2023-05-18T10:22:15;15.70;1.00
997;DHT22;487;50.126;8.698;2023-05-18T10:24:45;15.80;1.00
997;DHT22;487;50.126;8.698;2023-05-18T10:27:17;15.90;1.00
997;DHT22;487;50.126;8.698;2023-05-18T10:29:48;15.90;1.00
997;DHT22;487;50.126;8.698;2023-05-18T10:32:19;16.00;1.00
997;DHT22;487;50.126;8.698;2023-05-18T10:34:47;16.10;1.00
997;DHT22;487;50.126;8.698;2023-05-18T10:37:18;16.10;1.00
997;DHT22;487;50.126;8.698;2023-05-18T10:39:50;16.10;1.00
997;DHT22;487;50.126;8.698;2023-05-18T10:42:18;16.30;1.00
997;DHT22;487;50.126;8.698;2023-05-18T10:44:48;16.30;1.00
997;DHT22;487;50.126;8.698;2023-05-18T10:47:17;16.50;1.00
997;DHT22;487;50.126;8.698;2023-05-18T10:49:47;16.60;1.00
997;DHT22;487;50.126;8.698;2023-05-18T10:52:16;16.70;1.00
997;DHT22;487;50.126;8.698;2023-05-18T10:54:45;16.80;1.00
997;DHT22;487;50.126;8.698;2023-05-18T10:57:15;16.80;1.00
997;DHT22;487;50.126;8.698;2023-05-18T10:59:45;16.90;1.00
997;DHT22;487;50.126;8.698;2023-05-18T11:02:17;16.80;1.00
997;DHT22;487;50.126;8.698;2023-05-18T11:04:48;16.60;1.00
997;DHT22;487;50.126;8.698;2023-05-18T11:07:20;16.50;1.00
997;DHT22;487;50.126;8.698;2023-05-18T11:09:48;16.30;1.00
997;DHT22;487;50.126;8.698;2023-05-18T11:12:16;16.30;1.00
997;DHT22;487;50.126;8.698;2023-05-18T11:14:48;16.40;1.00
997;DHT22;487;50.126;8.698;2023-05-18T11:17:22;16.50;1.00
997;DHT22;487;50.126;8.698;2023-05-18T11:20:10;16.60;1.00
997;DHT22;487;50.126;8.698;2023-05-18T11:22:44;16.70;1.00
997;DHT22;487;50.126;8.698;2023-05-18T11:25:37;16.80;1.00
997;DHT22;487;50.126;8.698;2023-05-18T11:28:06;12.80;1.00
997;DHT22;487;50.126;8.698;2023-05-18T11:30:47;16.80;1.00
997;DHT22;487;50.126;8.698;2023-05-18T11:33:22;17.00;1.00
997;DHT22;487;50.126;8.698;2023-05-18T11:36:01;16.90;1.00
997;DHT22;487;50.126;8.698;2023-05-18T11:38:46;17.00;1.00
997;DHT22;487;50.126;8.698;2023-05-18T11:41:31;17.10;1.00
997;DHT22;487;50.126;8.698;2023-05-18T11:44:13;17.10;1.00
997;DHT22;487;50.126;8.698;2023-05-18T11:46:52;17.20;1.00
997;DHT22;487;50.126;8.698;2023-05-18T11:49:23;17.20;1.00
997;DHT22;487;50.126;8.698;2023-05-18T11:51:56;17.30;1.00
997;DHT22;487;50.126;8.698;2023-05-18T11:54:25;17.40;1.00
997;DHT22;487;50.126;8.698;2023-05-18T11:56:53;17.40;1.00
997;DHT22;487;50.126;8.698;2023-05-18T11:59:32;17.40;1.00
997;DHT22;487;50.126;8.698;2023-05-18T12:02:01;17.40;1.00
997;DHT22;487;50.126;8.698;2023-05-18T12:04:32;17.30;1.00
997;DHT22;487;50.126;8.698;2023-05-18T12:07:04;17.30;1.00
997;DHT22;487;50.126;8.698;2023-05-18T12:09:32;17.30;1.00
997;DHT22;487;50.126;8.698;2023-05-18T12:14:31;17.30;1.00
997;DHT22;487;50.126;8.698;2023-05-18T12:17:01;17.30;1.00
997;DHT22;487;50.126;8.698;2023-05-18T12:19:36;17.10;1.00
997;DHT22;487;50.126;8.698;2023-05-18T12:22:04;17.10;1.00
997;DHT22;487;50.126;8.698;2023-05-18T12:24:36;17.30;1.00
997;DHT22;487;50.126;8.698;2023-05-18T12:27:05;17.40;1.00
997;DHT22;487;50.126;8.698;2023-05-18T12:29:37;17.40;1.00
997;DHT22;487;50.126;8.698;2023-05-18T12:32:06;17.50;1.00
997;DHT22;487;50.126;8.698;2023-05-18T12:34:37;17.60;1.00
997;DHT22;487;50.126;8.698;2023-05-18T12:37:05;17.80;1.00
997;DHT22;487;50.126;8.698;2023-05-18T12:39:33;17.70;1.00
997;DHT22;487;50.126;8.698;2023-05-18T12:42:09;17.50;1.00
997;DHT22;487;50.126;8.698;2023-05-18T12:44:37;17.40;1.00
997;DHT22;487;50.126;8.698;2023-05-18T12:47:05;17.50;1.00
997;DHT22;487;50.126;8.698;2023-05-18T12:49:39;17.60;1.00
997;DHT22;487;50.126;8.698;2023-05-18T12:52:09;17.70;1.00
997;DHT22;487;50.126;8.698;2023-05-18T12:54:50;17.80;1.00
997;DHT22;487;50.126;8.698;2023-05-18T12:57:24;17.90;1.00
997;DHT22;487;50.126;8.698;2023-05-18T12:59:53;17.80;1.00
997;DHT22;487;50.126;8.698;2023-05-18T13:02:32;17.90;1.00
997;DHT22;487;50.126;8.698;2023-05-18T13:05:06;18.10;1.00
997;DHT22;487;50.126;8.698;2023-05-18T13:07:36;18.30;1.00
997;DHT22;487;50.126;8.698;2023-05-18T13:10:06;18.60;1.00
997;DHT22;487;50.126;8.698;2023-05-18T13:12:38;18.90;1.00
997;DHT22;487;50.126;8.698;2023-05-18T13:17:47;18.50;1.00
997;DHT22;487;50.126;8.698;2023-05-18T13:22:45;18.00;1.00
997;DHT22;487;50.126;8.698;2023-05-18T13:27:42;17.80;1.00
997;DHT22;487;50.126;8.698;2023-05-18T13:30:11;17.90;1.00
997;DHT22;487;50.126;8.698;2023-05-18T13:32:42;18.20;1.00
997;DHT22;487;50.126;8.698;2023-05-18T13:35:10;18.20;1.00
997;DHT22;487;50.126;8.698;2023-05-18T13:37:40;18.30;1.00
997;DHT22;487;50.126;8.698;2023-05-18T13:40:08;18.50;1.00
997;DHT22;487;50.126;8.698;2023-05-18T13:42:37;18.30;1.00
997;DHT22;487;50.126;8.698;2023-05-18T13:45:05;18.20;1.00
997;DHT22;487;50.126;8.698;2023-05-18T13:47:34;18.20;1.00
997;DHT22;487;50.126;8.698;2023-05-18T13:50:02;18.20;1.00
997;DHT22;487;50.126;8.698;2023-05-18T13:55:00;18.60;1.00
997;DHT22;487;50.126;8.698;2023-05-18T13:57:28;18.80;1.00
997;DHT22;487;50.126;8.698;2023-05-18T13:59:57;19.00;1.00
997;DHT22;487;50.126;8.698;2023-05-18T14:07:26;19.30;1.00
997;DHT22;487;50.126;8.698;2023-05-18T14:09:54;19.40;1.00
997;DHT22;487;50.126;8.698;2023-05-18T14:12:23;19.40;1.00
997;DHT22;487;50.126;8.698;2023-05-18T14:14:51;19.30;1.00
997;DHT22;487;50.126;8.698;2023-05-18T14:17:19;19.10;1.00
997;DHT22;487;50.126;8.698;2023-05-18T14:19:47;19.10;1.00
997;DHT22;487;50.126;8.698;2023-05-18T14:22:15;19.10;1.00
997;DHT22;487;50.126;8.698;2023-05-18T14:24:44;19.20;1.00
997;DHT22;487;50.126;8.698;2023-05-18T14:27:12;19.40;1.00
997;DHT22;487;50.126;8.698;2023-05-18T14:29:41;19.50;1.00
997;DHT22;487;50.126;8.698;2023-05-18T14:32:09;19.70;1.00
997;DHT22;487;50.126;8.698;2023-05-18T14:34:37;19.70;1.00
997;DHT22;487;50.126;8.698;2023-05-18T14:37:05;19.60;1.00
997;DHT22;487;50.126;8.698;2023-05-18T14:42:01;19.50;1.00
997;DHT22;487;50.126;8.698;2023-05-18T14:44:29;19.50;1.00
997;DHT22;487;50.126;8.698;2023-05-18T14:46:58;19.50;1.00
997;DHT22;487;50.126;8.698;2023-05-18T14:49:27;19.60;1.00
997;DHT22;487;50.126;8.698;2023-05-18T14:51:54;17.80;1.00
997;DHT22;487;50.126;8.698;2023-05-18T14:54:23;19.70;1.00
997;DHT22;487;50.126;8.698;2023-05-18T14:56:51;19.80;1.00
997;DHT22;487;50.126;8.698;2023-05-18T14:59:19;19.80;1.00
997;DHT22;487;50.126;8.698;2023-05-18T15:01:47;19.70;1.00
997;DHT22;487;50.126;8.698;2023-05-18T15:04:17;19.80;1.00
997;DHT22;487;50.126;8.698;2023-05-18T15:06:47;19.80;1.00
997;DHT22;487;50.126;8.698;2023-05-18T15:09:15;19.90;1.00
997;DHT22;487;50.126;8.698;2023-05-18T15:11:43;20.00;1.00
997;DHT22;487;50.126;8.698;2023-05-18T15:14:11;20.10;1.00
997;DHT22;487;50.126;8.698;2023-05-18T15:19:08;19.80;1.00
997;DHT22;487;50.126;8.698;2023-05-18T15:21:38;19.90;1.00
997;DHT22;487;50.126;8.698;2023-05-18T15:24:06;19.90;1.00
997;DHT22;487;50.126;8.698;2023-05-18T15:26:34;20.10;1.00
997;DHT22;487;50.126;8.698;2023-05-18T15:29:02;20.10;1.00
997;DHT22;487;50.126;8.698;2023-05-18T15:33:59;20.30;1.00
997;DHT22;487;50.126;8.698;2023-05-18T15:38:58;20.70;1.00
997;DHT22;487;50.126;8.698;2023-05-18T15:41:32;20.70;1.00
997;DHT22;487;50.126;8.698;2023-05-18T15:44:00;20.50;1.00
997;DHT22;487;50.126;8.698;2023-05-18T15:46:30;20.20;1.00
997;DHT22;487;50.126;8.698;2023-05-18T15:49:01;20.20;1.00
997;DHT22;487;50.126;8.698;2023-05-18T15:51:29;20.30;1.00
997;DHT22;487;50.126;8.698;2023-05-18T15:56:28;20.60;1.00
997;DHT22;487;50.126;8.698;2023-05-18T16:01:24;20.50;1.00
997;DHT22;487;50.126;8.698;2023-05-18T16:06:20;20.50;1.00
997;DHT22;487;50.126;8.698;2023-05-18T16:08:48;20.30;1.00
997;DHT22;487;50.126;8.698;2023-05-18T16:11:18;20.20;1.00
997;DHT22;487;50.126;8.698;2023-05-18T16:13:45;20.00;1.00
997;DHT22;487;50.126;8.698;2023-05-18T16:21:12;20.40;1.00
997;DHT22;487;50.126;8.698;2023-05-18T16:26:10;20.90;1.00
997;DHT22;487;50.126;8.698;2023-05-18T16:28:40;20.90;1.00
997;DHT22;487;50.126;8.698;2023-05-18T16:31:07;21.00;1.00
997;DHT22;487;50.126;8.698;2023-05-18T16:36:06;21.10;1.00
997;DHT22;487;50.126;8.698;2023-05-18T16:38:34;20.90;1.00
997;DHT22;487;50.126;8.698;2023-05-18T16:41:03;21.00;1.00
997;DHT22;487;50.126;8.698;2023-05-18T16:50:57;20.70;1.00
997;DHT22;487;50.126;8.698;2023-05-18T16:53:25;20.70;1.00
997;DHT22;487;50.126;8.698;2023-05-18T17:03:20;21.40;1.00
997;DHT22;487;50.126;8.698;2023-05-18T17:05:49;21.30;1.00
997;DHT22;487;50.126;8.698;2023-05-18T17:08:17;21.50;1.00
997;DHT22;487;50.126;8.698;2023-05-18T17:10:45;21.50;1.00
997;DHT22;487;50.126;8.698;2023-05-18T17:13:13;21.70;1.00
997;DHT22;487;50.126;8.698;2023-05-18T17:15:41;21.50;1.00
997;DHT22;487;50.126;8.698;2023-05-18T17:18:09;21.60;1.00
997;DHT22;487;50.126;8.698;2023-05-18T17:20:39;21.80;1.00
997;DHT22;487;50.126;8.698;2023-05-18T17:23:06;21.90;1.00
997;DHT22;487;50.126;8.698;2023-05-18T17:28:06;21.90;1.00
997;DHT22;487;50.126;8.698;2023-05-18T17:33:03;21.70;1.00
997;DHT22;487;50.126;8.698;2023-05-18T17:35:31;21.70;1.00
997;DHT22;487;50.126;8.698;2023-05-18T17:38:00;21.80;1.00
997;DHT22;487;50.126;8.698;2023-05-18T17:40:28;21.60;1.00
997;DHT22;487;50.126;8.698;2023-05-18T17:42:56;21.20;1.00
997;DHT22;487;50.126;8.698;2023-05-18T17:45:24;21.10;1.00
997;DHT22;487;50.126;8.698;2023-05-18T17:47:52;21.10;1.00
997;DHT22;487;50.126;8.698;2023-05-18T17:50:20;21.10;1.00
997;DHT22;487;50.126;8.698;2023-05-18T17:52:48;21.20;1.00
997;DHT22;487;50.126;8.698;2023-05-18T17:55:18;21.30;1.00
997;DHT22;487;50.126;8.698;2023-05-18T17:57:46;21.30;1.00
997;DHT22;487;50.126;8.698;2023-05-18T18:00:15;21.30;1.00
997;DHT22;487;50.126;8.698;2023-05-18T18:02:43;21.30;1.00
997;DHT22;487;50.126;8.698;2023-05-18T18:05:11;21.20;1.00
997;DHT22;487;50.126;8.698;2023-05-18T18:07:38;21.00;1.00
997;DHT22;487;50.126;8.698;2023-05-18T18:10:07;21.00;1.00
997;DHT22;487;50.126;8.698;2023-05-18T18:12:36;20.90;1.00
997;DHT22;487;50.126;8.698;2023-05-18T18:15:05;20.60;1.00
997;DHT22;487;50.126;8.698;2023-05-18T18:17:33;20.50;1.00
997;DHT22;487;50.126;8.698;2023-05-18T18:20:02;20.50;1.00
997;DHT22;487;50.126;8.698;2023-05-18T18:22:31;20.50;1.00
997;DHT22;487;50.126;8.698;2023-05-18T18:25:01;20.40;1.00
997;DHT22;487;50.126;8.698;2023-05-18T18:27:29;20.10;1.00
997;DHT22;487;50.126;8.698;2023-05-18T18:29:58;20.20;1.00
997;DHT22;487;50.126;8.698;2023-05-18T18:32:26;20.00;1.00
997;DHT22;487;50.126;8.698;2023-05-18T18:34:54;19.90;1.00
997;DHT22;487;50.126;8.698;2023-05-18T18:37:22;19.40;1.00
997;DHT22;487;50.126;8.698;2023-05-18T18:39:50;19.40;1.00
997;DHT22;487;50.126;8.698;2023-05-18T18:42:18;19.10;1.00
997;DHT22;487;50.126;8.698;2023-05-18T18:44:47;18.60;1.00
997;DHT22;487;50.126;8.698;2023-05-18T18:47:19;18.10;1.00
997;DHT22;487;50.126;8.698;2023-05-18T18:49:47;18.10;1.00
997;DHT22;487;50.126;8.698;2023-05-18T18:52:15;18.00;1.00
997;DHT22;487;50.126;8.698;2023-05-18T18:54:43;17.80;1.00
997;DHT22;487;50.126;8.698;2023-05-18T18:57:11;17.50;1.00
997;DHT22;487;50.126;8.698;2023-05-18T18:59:39;17.50;1.00
997;DHT22;487;50.126;8.698;2023-05-18T19:02:07;17.50;1.00
997;DHT22;487;50.126;8.698;2023-05-18T19:04:37;17.40;1.00
997;DHT22;487;50.126;8.698;2023-05-18T19:07:04;17.00;1.00
997;DHT22;487;50.126;8.698;2023-05-18T19:09:32;17.00;1.00
997;DHT22;487;50.126;8.698;2023-05-18T19:12:02;16.70;1.00
997;DHT22;487;50.126;8.698;2023-05-18T19:14:30;16.70;1.00
997;DHT22;487;50.126;8.698;2023-05-18T19:16:58;16.60;1.00
997;DHT22;487;50.126;8.698;2023-05-18T19:19:26;16.50;1.00
997;DHT22;487;50.126;8.698;2023-05-18T19:21:56;16.40;1.00
997;DHT22;487;50.126;8.698;2023-05-18T19:24:24;16.40;1.00
997;DHT22;487;50.126;8.698;2023-05-18T19:26:52;16.30;1.00
997;DHT22;487;50.126;8.698;2023-05-18T19:29:20;16.20;1.00
997;DHT22;487;50.126;8.698;2023-05-18T19:31:52;16.10;1.00
997;DHT22;487;50.126;8.698;2023-05-18T19:34:20;16.00;1.00
997;DHT22;487;50.126;8.698;2023-05-18T19:36:49;16.00;1.00
997;DHT22;487;50.126;8.698;2023-05-18T19:39:18;16.00;1.00
997;DHT22;487;50.126;8.698;2023-05-18T19:44:14;15.90;1.00
997;DHT22;487;50.126;8.698;2023-05-18T19:46:42;15.70;1.00
997;DHT22;487;50.126;8.698;2023-05-18T19:49:10;15.70;1.00
997;DHT22;487;50.126;8.698;2023-05-18T19:51:38;15.70;1.00
997;DHT22;487;50.126;8.698;2023-05-18T19:54:06;15.60;1.00
997;DHT22;487;50.126;8.698;2023-05-18T19:56:36;15.50;1.00
997;DHT22;487;50.126;8.698;2023-05-18T19:59:03;15.50;1.00
997;DHT22;487;50.126;8.698;2023-05-18T20:01:31;15.40;1.00
997;DHT22;487;50.126;8.698;2023-05-18T20:03:59;15.30;1.00
997;DHT22;487;50.126;8.698;2023-05-18T20:06:28;15.30;1.00
997;DHT22;487;50.126;8.698;2023-05-18T20:11:26;15.30;1.00
997;DHT22;487;50.126;8.698;2023-05-18T20:13:55;15.20;1.00
997;DHT22;487;50.126;8.698;2023-05-18T20:16:23;15.20;1.00
997;DHT22;487;50.126;8.698;2023-05-18T20:18:54;15.10;1.00
997;DHT22;487;50.126;8.698;2023-05-18T20:21:23;15.10;1.00
997;DHT22;487;50.126;8.698;2023-05-18T20:23:51;15.10;1.00
997;DHT22;487;50.126;8.698;2023-05-18T20:26:19;15.10;1.00
997;DHT22;487;50.126;8.698;2023-05-18T20:28:48;15.10;1.00
997;DHT22;487;50.126;8.698;2023-05-18T20:31:17;15.10;1.00
997;DHT22;487;50.126;8.698;2023-05-18T20:33:47;15.10;1.00
997;DHT22;487;50.126;8.698;2023-05-18T20:36:15;15.00;1.00
997;DHT22;487;50.126;8.698;2023-05-18T20:38:43;15.00;1.00
997;DHT22;487;50.126;8.698;2023-05-18T20:41:11;14.90;1.00
997;DHT22;487;50.126;8.698;2023-05-18T20:43:39;13.00;1.00
997;DHT22;487;50.126;8.698;2023-05-18T20:46:07;14.90;1.00
997;DHT22;487;50.126;8.698;2023-05-18T20:51:10;14.70;1.00
997;DHT22;487;50.126;8.698;2023-05-18T20:53:44;14.70;1.00
997;DHT22;487;50.126;8.698;2023-05-18T20:56:13;14.60;1.00
997;DHT22;487;50.126;8.698;2023-05-18T20:58:41;14.60;1.00
997;DHT22;487;50.126;8.698;2023-05-18T21:01:15;14.60;1.00
997;DHT22;487;50.126;8.698;2023-05-18T21:03:46;14.60;1.00
997;DHT22;487;50.126;8.698;2023-05-18T21:06:14;14.60;1.00
997;DHT22;487;50.126;8.698;2023-05-18T21:08:42;14.60;1.00
997;DHT22;487;50.126;8.698;2023-05-18T21:11:11;14.50;1.00
997;DHT22;487;50.126;8.698;2023-05-18T21:16:07;14.40;1.00
997;DHT22;487;50.126;8.698;2023-05-18T21:18:35;14.40;1.00
997;DHT22;487;50.126;8.698;2023-05-18T21:21:05;14.40;1.00
997;DHT22;487;50.126;8.698;2023-05-18T21:23:32;14.40;1.00
997;DHT22;487;50.126;8.698;2023-05-18T21:26:00;14.30;1.00
997;DHT22;487;50.126;8.698;2023-05-18T21:28:28;14.40;1.00
997;DHT22;487;50.126;8.698;2023-05-18T21:30:56;14.30;1.00
997;DHT22;487;50.126;8.698;2023-05-18T21:33:24;14.30;1.00
997;DHT22;487;50.126;8.698;2023-05-18T21:35:53;14.30;1.00
997;DHT22;487;50.126;8.698;2023-05-18T21:38:22;14.30;1.00
997;DHT22;487;50.126;8.698;2023-05-18T21:40:50;14.40;1.00
997;DHT22;487;50.126;8.698;2023-05-18T21:43:18;14.40;1.00
997;DHT22;487;50.126;8.698;2023-05-18T21:45:46;14.40;1.00
997;DHT22;487;50.126;8.698;2023-05-18T21:48:14;14.40;1.00
997;DHT22;487;50.126;8.698;2023-05-18T21:50:42;14.30;1.00
997;DHT22;487;50.126;8.698;2023-05-18T21:53:10;14.30;1.00
997;DHT22;487;50.126;8.698;2023-05-18T21:55:39;14.20;1.00
997;DHT22;487;50.126;8.698;2023-05-18T21:58:07;14.20;1.00
997;DHT22;487;50.126;8.698;2023-05-18T22:00:35;14.10;1.00
997;DHT22;487;50.126;8.698;2023-05-18T22:03:03;14.10;1.00
997;DHT22;487;50.126;8.698;2023-05-18T22:05:31;14.10;1.00
997;DHT22;487;50.126;8.698;2023-05-18T22:07:59;14.00;1.00
997;DHT22;487;50.126;8.698;2023-05-18T22:10:27;14.00;1.00
997;DHT22;487;50.126;8.698;2023-05-18T22:12:58;13.90;1.00
997;DHT22;487;50.126;8.698;2023-05-18T22:15:26;13.80;1.00
997;DHT22;487;50.126;8.698;2023-05-18T22:17:54;13.80;1.00
997;DHT22;487;50.126;8.698;2023-05-18T22:20:22;13.80;1.00
997;DHT22;487;50.126;8.698;2023-05-18T22:22:50;13.70;1.00
997;DHT22;487;50.126;8.698;2023-05-18T22:25:18;13.70;1.00